sensor_id;sensor_type;location;lat;lon;timestamp;temperature;humidity
15630;DHT22;7914;50.842;0.166;2024-01-07T00:00:20;3.80;100.00
15630;DHT22;7914;50.842;0.166;2024-01-07T00:02:46;3.80;100.00
15630;DHT22;7914;50.842;0.166;2024-01-07T00:05:12;3.80;100.00
15630;DHT22;7914;50.842;0.166;2024-01-07T00:07:38;3.70;100.00
15630;DHT22;7914;50.842;0.166;2024-01-07T00:10:03;3.70;100.00
15630;DHT22;7914;50.842;0.166;2024-01-07T00:12:30;3.70;100.00
15630;DHT22;7914;50.842;0.166;2024-01-07T00:14:56;3.70;100.00
15630;DHT22;7914;50.842;0.166;2024-01-07T00:17:23;3.60;100.00
15630;DHT22;7914;50.842;0.166;2024-01-07T00:19:48;3.70;100.00
15630;DHT22;7914;50.842;0.166;2024-01-07T00:22:14;3.60;100.00
15630;DHT22;7914;50.842;0.166;2024-01-07T00:24:40;3.50;100.00
15630;DHT22;7914;50.842;0.166;2024-01-07T00:27:05;3.50;100.00
15630;DHT22;7914;50.842;0.166;2024-01-07T00:29:33;3.50;100.00
15630;DHT22;7914;50.842;0.166;2024-01-07T00:32:00;3.40;100.00
15630;DHT22;7914;50.842;0.166;2024-01-07T00:34:26;3.30;100.00
15630;DHT22;7914;50.842;0.166;2024-01-07T00:36:51;3.30;100.00
15630;DHT22;7914;50.842;0.166;2024-01-07T00:39:17;3.20;100.00
15630;DHT22;7914;50.842;0.166;2024-01-07T00:41:43;3.10;100.00
15630;DHT22;7914;50.842;0.166;2024-01-07T00:44:08;3.10;100.00
15630;DHT22;7914;50.842;0.166;2024-01-07T00:46:34;3.00;100.00
15630;DHT22;7914;50.842;0.166;2024-01-07T00:49:00;3.00;100.00
15630;DHT22;7914;50.842;0.166;2024-01-07T00:51:25;3.00;100.00
15630;DHT22;7914;50.842;0.166;2024-01-07T00:53:51;2.90;100.00
15630;DHT22;7914;50.842;0.166;2024-01-07T00:56:17;2.80;100.00
15630;DHT22;7914;50.842;0.166;2024-01-07T00:58:42;2.80;100.00
15630;DHT22;7914;50.842;0.166;2024-01-07T01:01:08;2.70;100.00
15630;DHT22;7914;50.842;0.166;2024-01-07T01:03:34;2.70;100.00
15630;DHT22;7914;50.842;0.166;2024-01-07T01:05:59;2.70;100.00
15630;DHT22;7914;50.842;0.166;2024-01-07T01:08:25;2.60;100.00
15630;DHT22;7914;50.842;0.166;2024-01-07T01:10:51;2.60;100.00
15630;DHT22;7914;50.842;0.166;2024-01-07T01:13:16;2.50;100.00
15630;DHT22;7914;50.842;0.166;2024-01-07T01:15:42;2.50;100.00
15630;DHT22;7914;50.842;0.166;2024-01-07T01:18:08;2.50;100.00
15630;DHT22;7914;50.842;0.166;2024-01-07T01:20:33;2.50;100.00
15630;DHT22;7914;50.842;0.166;2024-01-07T01:22:59;2.50;100.00
15630;DHT22;7914;50.842;0.166;2024-01-07T01:25:25;2.40;100.00
15630;DHT22;7914;50.842;0.166;2024-01-07T01:27:52;2.40;100.00
15630;DHT22;7914;50.842;0.166;2024-01-07T01:30:18;2.40;100.00
15630;DHT22;7914;50.842;0.166;2024-01-07T01:32:44;2.30;100.00
15630;DHT22;7914;50.842;0.166;2024-01-07T01:35:09;2.40;100.00
15630;DHT22;7914;50.842;0.166;2024-01-07T01:37:35;2.30;100.00
15630;DHT22;7914;50.842;0.166;2024-01-07T01:40:01;2.30;100.00
15630;DHT22;7914;50.842;0.166;2024-01-07T01:42:26;2.20;100.00
15630;DHT22;7914;50.842;0.166;2024-01-07T01:44:55;2.20;100.00
15630;DHT22;7914;50.842;0.166;2024-01-07T01:47:25;2.10;100.00
15630;DHT22;7914;50.842;0.166;2024-01-07T01:49:50;2.10;100.00
15630;DHT22;7914;50.842;0.166;2024-01-07T01:52:16;2.10;100.00
15630;DHT22;7914;50.842;0.166;2024-01-07T01:54:42;2.10;100.00
15630;DHT22;7914;50.842;0.166;2024-01-07T01:57:15;2.10;100.00
15630;DHT22;7914;50.842;0.166;2024-01-07T01:59:43;2.00;100.00
15630;DHT22;7914;50.842;0.166;2024-01-07T02:02:08;2.00;100.00
15630;DHT22;7914;50.842;0.166;2024-01-07T02:04:34;2.00;100.00
15630;DHT22;7914;50.842;0.166;2024-01-07T02:07:00;2.00;100.00
15630;DHT22;7914;50.842;0.166;2024-01-07T02:09:26;2.00;100.00
15630;DHT22;7914;50.842;0.166;2024-01-07T02:12:04;2.00;100.00
15630;DHT22;7914;50.842;0.166;2024-01-07T02:14:30;1.90;100.00
15630;DHT22;7914;50.842;0.166;2024-01-07T02:16:56;1.90;100.00
15630;DHT22;7914;50.842;0.166;2024-01-07T02:19:22;1.90;100.00
15630;DHT22;7914;50.842;0.166;2024-01-07T02:21:50;1.90;100.00
15630;DHT22;7914;50.842;0.166;2024-01-07T02:24:17;1.80;100.00
15630;DHT22;7914;50.842;0.166;2024-01-07T02:26:43;1.80;100.00
15630;DHT22;7914;50.842;0.166;2024-01-07T02:29:08;1.80;100.00
15630;DHT22;7914;50.842;0.166;2024-01-07T02:31:34;1.70;100.00
15630;DHT22;7914;50.842;0.166;2024-01-07T02:34:00;1.70;100.00
15630;DHT22;7914;50.842;0.166;2024-01-07T02:36:25;1.70;100.00
15630;DHT22;7914;50.842;0.166;2024-01-07T02:38:51;1.70;100.00
15630;DHT22;7914;50.842;0.166;2024-01-07T02:41:17;1.70;100.00
15630;DHT22;7914;50.842;0.166;2024-01-07T02:43:42;1.60;100.00
15630;DHT22;7914;50.842;0.166;2024-01-07T02:46:08;1.70;100.00
15630;DHT22;7914;50.842;0.166;2024-01-07T02:48:34;1.70;100.00
15630;DHT22;7914;50.842;0.166;2024-01-07T02:51:00;1.70;100.00
15630;DHT22;7914;50.842;0.166;2024-01-07T02:53:28;1.60;100.00
15630;DHT22;7914;50.842;0.166;2024-01-07T02:55:54;1.60;100.00
15630;DHT22;7914;50.842;0.166;2024-01-07T02:58:20;1.50;100.00
15630;DHT22;7914;50.842;0.166;2024-01-07T03:00:45;1.40;100.00
15630;DHT22;7914;50.842;0.166;2024-01-07T03:03:11;1.50;100.00
15630;DHT22;7914;50.842;0.166;2024-01-07T03:05:37;1.50;100.00
15630;DHT22;7914;50.842;0.166;2024-01-07T03:08:03;1.50;100.00
15630;DHT22;7914;50.842;0.166;2024-01-07T03:10:29;1.40;100.00
15630;DHT22;7914;50.842;0.166;2024-01-07T03:12:54;1.40;100.00
15630;DHT22;7914;50.842;0.166;2024-01-07T03:15:20;1.40;100.00
15630;DHT22;7914;50.842;0.166;2024-01-07T03:17:46;1.40;100.00
15630;DHT22;7914;50.842;0.166;2024-01-07T03:20:12;1.40;100.00
15630;DHT22;7914;50.842;0.166;2024-01-07T03:22:37;1.40;100.00
15630;DHT22;7914;50.842;0.166;2024-01-07T03:25:03;1.30;100.00
15630;DHT22;7914;50.842;0.166;2024-01-07T03:27:29;1.30;100.00
15630;DHT22;7914;50.842;0.166;2024-01-07T03:29:55;1.30;100.00
15630;DHT22;7914;50.842;0.166;2024-01-07T03:32:20;1.30;100.00
15630;DHT22;7914;50.842;0.166;2024-01-07T03:34:46;1.40;100.00
15630;DHT22;7914;50.842;0.166;2024-01-07T03:37:12;1.40;100.00
15630;DHT22;7914;50.842;0.166;2024-01-07T03:39:38;1.30;100.00
15630;DHT22;7914;50.842;0.166;2024-01-07T03:42:03;1.30;100.00
15630;DHT22;7914;50.842;0.166;2024-01-07T03:44:31;1.30;100.00
15630;DHT22;7914;50.842;0.166;2024-01-07T03:46:57;1.30;100.00
15630;DHT22;7914;50.842;0.166;2024-01-07T03:49:22;1.30;100.00
15630;DHT22;7914;50.842;0.166;2024-01-07T03:51:48;1.20;100.00
15630;DHT22;7914;50.842;0.166;2024-01-07T03:54:14;1.20;100.00
15630;DHT22;7914;50.842;0.166;2024-01-07T03:56:40;1.20;100.00
15630;DHT22;7914;50.842;0.166;2024-01-07T03:59:05;1.20;100.00
15630;DHT22;7914;50.842;0.166;2024-01-07T04:01:31;1.20;100.00
15630;DHT22;7914;50.842;0.166;2024-01-07T04:03:57;1.20;100.00
15630;DHT22;7914;50.842;0.166;2024-01-07T04:06:22;1.20;100.00
15630;DHT22;7914;50.842;0.166;2024-01-07T04:08:48;1.20;100.00
15630;DHT22;7914;50.842;0.166;2024-01-07T04:11:14;1.20;100.00
15630;DHT22;7914;50.842;0.166;2024-01-07T04:13:39;1.10;100.00
15630;DHT22;7914;50.842;0.166;2024-01-07T04:16:05;1.10;100.00
15630;DHT22;7914;50.842;0.166;2024-01-07T04:18:31;1.10;100.00
15630;DHT22;7914;50.842;0.166;2024-01-07T04:20:56;1.10;100.00
15630;DHT22;7914;50.842;0.166;2024-01-07T04:23:22;1.10;100.00
15630;DHT22;7914;50.842;0.166;2024-01-07T04:25:48;1.10;100.00
15630;DHT22;7914;50.842;0.166;2024-01-07T04:28:14;1.10;100.00
15630;DHT22;7914;50.842;0.166;2024-01-07T04:30:39;1.10;100.00
15630;DHT22;7914;50.842;0.166;2024-01-07T04:33:05;1.10;100.00
15630;DHT22;7914;50.842;0.166;2024-01-07T04:35:31;1.10;100.00
15630;DHT22;7914;50.842;0.166;2024-01-07T04:37:57;1.10;100.00
15630;DHT22;7914;50.842;0.166;2024-01-07T04:40:22;1.10;100.00
15630;DHT22;7914;50.842;0.166;2024-01-07T04:42:48;1.10;100.00
15630;DHT22;7914;50.842;0.166;2024-01-07T04:45:14;1.10;100.00
15630;DHT22;7914;50.842;0.166;2024-01-07T04:47:39;1.10;100.00
15630;DHT22;7914;50.842;0.166;2024-01-07T04:50:05;1.10;100.00
15630;DHT22;7914;50.842;0.166;2024-01-07T04:52:31;1.10;100.00
15630;DHT22;7914;50.842;0.166;2024-01-07T04:54:57;1.00;100.00
15630;DHT22;7914;50.842;0.166;2024-01-07T04:57:23;1.00;100.00
15630;DHT22;7914;50.842;0.166;2024-01-07T04:59:49;1.00;100.00
15630;DHT22;7914;50.842;0.166;2024-01-07T05:02:15;1.00;100.00
15630;DHT22;7914;50.842;0.166;2024-01-07T05:04:42;1.00;100.00
15630;DHT22;7914;50.842;0.166;2024-01-07T05:07:07;1.00;100.00
15630;DHT22;7914;50.842;0.166;2024-01-07T05:09:33;1.00;100.00
15630;DHT22;7914;50.842;0.166;2024-01-07T05:11:59;1.00;100.00
15630;DHT22;7914;50.842;0.166;2024-01-07T05:14:26;1.00;100.00
15630;DHT22;7914;50.842;0.166;2024-01-07T05:16:53;0.90;100.00
15630;DHT22;7914;50.842;0.166;2024-01-07T05:19:19;0.90;100.00
15630;DHT22;7914;50.842;0.166;2024-01-07T05:21:45;0.90;100.00
15630;DHT22;7914;50.842;0.166;2024-01-07T05:24:11;0.90;100.00
15630;DHT22;7914;50.842;0.166;2024-01-07T05:26:41;0.90;100.00
15630;DHT22;7914;50.842;0.166;2024-01-07T05:29:07;0.90;100.00
15630;DHT22;7914;50.842;0.166;2024-01-07T05:31:33;0.90;100.00
15630;DHT22;7914;50.842;0.166;2024-01-07T05:33:59;0.90;100.00
15630;DHT22;7914;50.842;0.166;2024-01-07T05:36:24;0.90;100.00
15630;DHT22;7914;50.842;0.166;2024-01-07T05:38:50;0.80;100.00
15630;DHT22;7914;50.842;0.166;2024-01-07T05:41:16;0.80;100.00
15630;DHT22;7914;50.842;0.166;2024-01-07T05:43:42;0.70;100.00
15630;DHT22;7914;50.842;0.166;2024-01-07T05:46:08;0.60;100.00
15630;DHT22;7914;50.842;0.166;2024-01-07T05:48:46;0.40;100.00
15630;DHT22;7914;50.842;0.166;2024-01-07T05:51:12;0.40;100.00
15630;DHT22;7914;50.842;0.166;2024-01-07T05:53:39;0.30;100.00
15630;DHT22;7914;50.842;0.166;2024-01-07T05:56:05;0.20;100.00
15630;DHT22;7914;50.842;0.166;2024-01-07T05:58:31;0.10;100.00
15630;DHT22;7914;50.842;0.166;2024-01-07T06:00:56;0.10;100.00
15630;DHT22;7914;50.842;0.166;2024-01-07T06:03:22;0.10;100.00
15630;DHT22;7914;50.842;0.166;2024-01-07T06:05:48;0.10;100.00
15630;DHT22;7914;50.842;0.166;2024-01-07T06:08:14;0.10;100.00
15630;DHT22;7914;50.842;0.166;2024-01-07T06:10:40;0.10;100.00
15630;DHT22;7914;50.842;0.166;2024-01-07T06:13:06;0.10;100.00
15630;DHT22;7914;50.842;0.166;2024-01-07T06:15:33;0.00;100.00
15630;DHT22;7914;50.842;0.166;2024-01-07T06:17:58;0.10;100.00
15630;DHT22;7914;50.842;0.166;2024-01-07T06:20:24;0.10;100.00
15630;DHT22;7914;50.842;0.166;2024-01-07T06:22:50;0.10;100.00
15630;DHT22;7914;50.842;0.166;2024-01-07T06:25:16;0.10;100.00
15630;DHT22;7914;50.842;0.166;2024-01-07T06:27:42;0.10;100.00
15630;DHT22;7914;50.842;0.166;2024-01-07T06:30:08;0.10;100.00
15630;DHT22;7914;50.842;0.166;2024-01-07T06:32:34;0.00;100.00
15630;DHT22;7914;50.842;0.166;2024-01-07T06:35:01;0.00;100.00
15630;DHT22;7914;50.842;0.166;2024-01-07T06:37:28;0.00;100.00
15630;DHT22;7914;50.842;0.166;2024-01-07T06:39:55;0.00;100.00
15630;DHT22;7914;50.842;0.166;2024-01-07T06:42:22;0.00;100.00
15630;DHT22;7914;50.842;0.166;2024-01-07T06:44:47;0.00;100.00
15630;DHT22;7914;50.842;0.166;2024-01-07T06:47:13;0.10;100.00
15630;DHT22;7914;50.842;0.166;2024-01-07T06:49:39;0.20;100.00
15630;DHT22;7914;50.842;0.166;2024-01-07T06:52:05;0.20;100.00
15630;DHT22;7914;50.842;0.166;2024-01-07T06:54:31;0.30;100.00
15630;DHT22;7914;50.842;0.166;2024-01-07T06:56:57;0.20;100.00
15630;DHT22;7914;50.842;0.166;2024-01-07T06:59:23;0.30;100.00
15630;DHT22;7914;50.842;0.166;2024-01-07T07:01:48;0.40;100.00
15630;DHT22;7914;50.842;0.166;2024-01-07T07:04:14;0.50;100.00
15630;DHT22;7914;50.842;0.166;2024-01-07T07:06:40;0.50;100.00
15630;DHT22;7914;50.842;0.166;2024-01-07T07:09:05;0.70;100.00
15630;DHT22;7914;50.842;0.166;2024-01-07T07:11:32;0.80;100.00
15630;DHT22;7914;50.842;0.166;2024-01-07T07:13:58;0.80;100.00
15630;DHT22;7914;50.842;0.166;2024-01-07T07:16:23;0.80;100.00
15630;DHT22;7914;50.842;0.166;2024-01-07T07:18:49;0.90;100.00
15630;DHT22;7914;50.842;0.166;2024-01-07T07:21:15;0.90;100.00
15630;DHT22;7914;50.842;0.166;2024-01-07T07:23:40;1.00;100.00
15630;DHT22;7914;50.842;0.166;2024-01-07T07:26:06;1.00;100.00
15630;DHT22;7914;50.842;0.166;2024-01-07T07:28:33;1.00;100.00
15630;DHT22;7914;50.842;0.166;2024-01-07T07:30:59;1.00;100.00
15630;DHT22;7914;50.842;0.166;2024-01-07T07:33:25;0.90;100.00
15630;DHT22;7914;50.842;0.166;2024-01-07T07:35:51;0.90;100.00
15630;DHT22;7914;50.842;0.166;2024-01-07T07:38:16;0.90;100.00
15630;DHT22;7914;50.842;0.166;2024-01-07T07:40:42;1.00;100.00
15630;DHT22;7914;50.842;0.166;2024-01-07T07:43:09;1.00;100.00
15630;DHT22;7914;50.842;0.166;2024-01-07T07:45:35;0.90;100.00
15630;DHT22;7914;50.842;0.166;2024-01-07T07:48:00;1.00;100.00
15630;DHT22;7914;50.842;0.166;2024-01-07T07:50:26;1.00;100.00
15630;DHT22;7914;50.842;0.166;2024-01-07T07:52:52;1.00;100.00
15630;DHT22;7914;50.842;0.166;2024-01-07T07:55:19;1.00;100.00
15630;DHT22;7914;50.842;0.166;2024-01-07T07:57:45;1.00;100.00
15630;DHT22;7914;50.842;0.166;2024-01-07T08:00:12;1.00;100.00
15630;DHT22;7914;50.842;0.166;2024-01-07T08:02:38;1.00;100.00
15630;DHT22;7914;50.842;0.166;2024-01-07T08:05:06;1.10;100.00
15630;DHT22;7914;50.842;0.166;2024-01-07T08:07:32;1.10;100.00
15630;DHT22;7914;50.842;0.166;2024-01-07T08:09:57;1.10;100.00
15630;DHT22;7914;50.842;0.166;2024-01-07T08:12:23;1.10;100.00
15630;DHT22;7914;50.842;0.166;2024-01-07T08:14:49;1.00;100.00
15630;DHT22;7914;50.842;0.166;2024-01-07T08:17:15;1.00;100.00
15630;DHT22;7914;50.842;0.166;2024-01-07T08:19:41;1.00;100.00
15630;DHT22;7914;50.842;0.166;2024-01-07T08:22:06;1.00;100.00
15630;DHT22;7914;50.842;0.166;2024-01-07T08:24:32;1.10;100.00
15630;DHT22;7914;50.842;0.166;2024-01-07T08:26:58;1.10;100.00
15630;DHT22;7914;50.842;0.166;2024-01-07T08:29:24;1.20;100.00
15630;DHT22;7914;50.842;0.166;2024-01-07T08:31:50;1.30;100.00
15630;DHT22;7914;50.842;0.166;2024-01-07T08:34:16;1.40;100.00
15630;DHT22;7914;50.842;0.166;2024-01-07T08:36:42;1.50;100.00
15630;DHT22;7914;50.842;0.166;2024-01-07T08:39:08;1.60;100.00
15630;DHT22;7914;50.842;0.166;2024-01-07T08:41:34;1.70;100.00
15630;DHT22;7914;50.842;0.166;2024-01-07T08:43:59;1.70;100.00
15630;DHT22;7914;50.842;0.166;2024-01-07T08:46:25;1.70;100.00
15630;DHT22;7914;50.842;0.166;2024-01-07T08:48:51;1.60;100.00
15630;DHT22;7914;50.842;0.166;2024-01-07T08:51:17;1.70;100.00
15630;DHT22;7914;50.842;0.166;2024-01-07T08:53:42;1.70;100.00
15630;DHT22;7914;50.842;0.166;2024-01-07T08:56:08;1.70;100.00
15630;DHT22;7914;50.842;0.166;2024-01-07T08:58:34;1.80;100.00
15630;DHT22;7914;50.842;0.166;2024-01-07T09:01:00;1.90;100.00
15630;DHT22;7914;50.842;0.166;2024-01-07T09:03:26;1.90;100.00
15630;DHT22;7914;50.842;0.166;2024-01-07T09:05:51;1.90;100.00
15630;DHT22;7914;50.842;0.166;2024-01-07T09:08:17;2.00;100.00
15630;DHT22;7914;50.842;0.166;2024-01-07T09:10:43;2.00;100.00
15630;DHT22;7914;50.842;0.166;2024-01-07T09:13:09;2.00;100.00
15630;DHT22;7914;50.842;0.166;2024-01-07T09:15:35;2.10;100.00
15630;DHT22;7914;50.842;0.166;2024-01-07T09:18:00;2.10;100.00
15630;DHT22;7914;50.842;0.166;2024-01-07T09:20:26;2.20;100.00
15630;DHT22;7914;50.842;0.166;2024-01-07T09:22:52;2.30;100.00
15630;DHT22;7914;50.842;0.166;2024-01-07T09:25:17;2.40;100.00
15630;DHT22;7914;50.842;0.166;2024-01-07T09:27:43;2.60;100.00
15630;DHT22;7914;50.842;0.166;2024-01-07T09:30:09;2.80;100.00
15630;DHT22;7914;50.842;0.166;2024-01-07T09:32:41;2.90;100.00
15630;DHT22;7914;50.842;0.166;2024-01-07T09:35:07;3.00;100.00
15630;DHT22;7914;50.842;0.166;2024-01-07T09:37:33;2.90;100.00
15630;DHT22;7914;50.842;0.166;2024-01-07T09:39:58;2.80;100.00
15630;DHT22;7914;50.842;0.166;2024-01-07T09:42:24;2.70;100.00
15630;DHT22;7914;50.842;0.166;2024-01-07T09:44:51;2.80;100.00
15630;DHT22;7914;50.842;0.166;2024-01-07T09:47:17;2.80;100.00
15630;DHT22;7914;50.842;0.166;2024-01-07T09:49:43;2.70;100.00
15630;DHT22;7914;50.842;0.166;2024-01-07T09:52:10;2.70;100.00
15630;DHT22;7914;50.842;0.166;2024-01-07T09:54:37;2.70;100.00
15630;DHT22;7914;50.842;0.166;2024-01-07T09:57:07;2.70;100.00
15630;DHT22;7914;50.842;0.166;2024-01-07T09:59:35;2.60;100.00
15630;DHT22;7914;50.842;0.166;2024-01-07T10:02:02;2.70;100.00
15630;DHT22;7914;50.842;0.166;2024-01-07T10:04:28;2.60;100.00
15630;DHT22;7914;50.842;0.166;2024-01-07T10:06:55;2.60;100.00
15630;DHT22;7914;50.842;0.166;2024-01-07T10:09:32;2.60;100.00
15630;DHT22;7914;50.842;0.166;2024-01-07T10:11:58;2.60;100.00
15630;DHT22;7914;50.842;0.166;2024-01-07T10:14:24;2.70;100.00
15630;DHT22;7914;50.842;0.166;2024-01-07T10:16:52;2.70;100.00
15630;DHT22;7914;50.842;0.166;2024-01-07T10:19:24;2.60;100.00
15630;DHT22;7914;50.842;0.166;2024-01-07T10:22:00;2.60;100.00
15630;DHT22;7914;50.842;0.166;2024-01-07T10:24:26;2.60;100.00
15630;DHT22;7914;50.842;0.166;2024-01-07T10:26:56;2.60;100.00
15630;DHT22;7914;50.842;0.166;2024-01-07T10:29:22;2.70;100.00
15630;DHT22;7914;50.842;0.166;2024-01-07T10:31:48;2.70;100.00
15630;DHT22;7914;50.842;0.166;2024-01-07T10:34:15;2.80;100.00
15630;DHT22;7914;50.842;0.166;2024-01-07T10:36:42;3.00;100.00
15630;DHT22;7914;50.842;0.166;2024-01-07T10:39:08;3.30;100.00
15630;DHT22;7914;50.842;0.166;2024-01-07T10:41:37;3.40;100.00
15630;DHT22;7914;50.842;0.166;2024-01-07T10:44:03;3.60;100.00
15630;DHT22;7914;50.842;0.166;2024-01-07T10:46:31;3.70;100.00
15630;DHT22;7914;50.842;0.166;2024-01-07T10:49:00;3.70;100.00
15630;DHT22;7914;50.842;0.166;2024-01-07T10:51:34;3.70;100.00
15630;DHT22;7914;50.842;0.166;2024-01-07T10:54:00;3.70;100.00
15630;DHT22;7914;50.842;0.166;2024-01-07T10:56:35;3.60;100.00
15630;DHT22;7914;50.842;0.166;2024-01-07T10:59:02;3.60;100.00
15630;DHT22;7914;50.842;0.166;2024-01-07T11:01:29;3.70;100.00
15630;DHT22;7914;50.842;0.166;2024-01-07T11:07:36;3.70;100.00
15630;DHT22;7914;50.842;0.166;2024-01-07T11:12:11;3.80;100.00
15630;DHT22;7914;50.842;0.166;2024-01-07T11:14:43;3.70;100.00
15630;DHT22;7914;50.842;0.166;2024-01-07T11:20:23;3.70;100.00
15630;DHT22;7914;50.842;0.166;2024-01-07T11:22:52;3.80;100.00
15630;DHT22;7914;50.842;0.166;2024-01-07T11:25:31;4.00;100.00
15630;DHT22;7914;50.842;0.166;2024-01-07T11:27:59;4.10;100.00
15630;DHT22;7914;50.842;0.166;2024-01-07T11:30:26;4.20;100.00
15630;DHT22;7914;50.842;0.166;2024-01-07T11:32:59;4.30;100.00
15630;DHT22;7914;50.842;0.166;2024-01-07T11:35:53;4.30;100.00
15630;DHT22;7914;50.842;0.166;2024-01-07T11:38:19;4.40;100.00
15630;DHT22;7914;50.842;0.166;2024-01-07T11:40:46;4.40;100.00
15630;DHT22;7914;50.842;0.166;2024-01-07T11:43:14;4.50;100.00
15630;DHT22;7914;50.842;0.166;2024-01-07T11:45:40;4.50;100.00
15630;DHT22;7914;50.842;0.166;2024-01-07T11:48:06;4.50;100.00
15630;DHT22;7914;50.842;0.166;2024-01-07T11:50:31;4.50;100.00
15630;DHT22;7914;50.842;0.166;2024-01-07T11:52:57;4.50;100.00
15630;DHT22;7914;50.842;0.166;2024-01-07T11:55:24;4.60;100.00
15630;DHT22;7914;50.842;0.166;2024-01-07T11:57:51;4.60;100.00
15630;DHT22;7914;50.842;0.166;2024-01-07T12:00:18;4.70;100.00
15630;DHT22;7914;50.842;0.166;2024-01-07T12:02:45;4.70;100.00
15630;DHT22;7914;50.842;0.166;2024-01-07T12:05:11;4.80;100.00
15630;DHT22;7914;50.842;0.166;2024-01-07T12:07:38;4.80;100.00
15630;DHT22;7914;50.842;0.166;2024-01-07T12:10:07;4.80;100.00
15630;DHT22;7914;50.842;0.166;2024-01-07T12:12:40;4.70;100.00
15630;DHT22;7914;50.842;0.166;2024-01-07T12:15:08;4.70;100.00
15630;DHT22;7914;50.842;0.166;2024-01-07T12:17:34;4.70;100.00
15630;DHT22;7914;50.842;0.166;2024-01-07T12:20:00;4.70;100.00
15630;DHT22;7914;50.842;0.166;2024-01-07T12:22:28;4.70;100.00
15630;DHT22;7914;50.842;0.166;2024-01-07T12:25:05;4.90;100.00
15630;DHT22;7914;50.842;0.166;2024-01-07T12:27:31;5.10;100.00
15630;DHT22;7914;50.842;0.166;2024-01-07T12:29:58;5.10;100.00
15630;DHT22;7914;50.842;0.166;2024-01-07T12:32:29;5.00;100.00
15630;DHT22;7914;50.842;0.166;2024-01-07T12:34:59;5.00;100.00
15630;DHT22;7914;50.842;0.166;2024-01-07T12:37:28;5.00;100.00
15630;DHT22;7914;50.842;0.166;2024-01-07T12:39:57;4.90;100.00
15630;DHT22;7914;50.842;0.166;2024-01-07T12:42:22;4.80;100.00
15630;DHT22;7914;50.842;0.166;2024-01-07T12:44:49;4.70;100.00
15630;DHT22;7914;50.842;0.166;2024-01-07T12:47:15;4.70;100.00
15630;DHT22;7914;50.842;0.166;2024-01-07T12:49:41;4.80;100.00
15630;DHT22;7914;50.842;0.166;2024-01-07T12:52:07;4.80;100.00
15630;DHT22;7914;50.842;0.166;2024-01-07T12:54:35;4.80;100.00
15630;DHT22;7914;50.842;0.166;2024-01-07T12:57:00;4.80;100.00
15630;DHT22;7914;50.842;0.166;2024-01-07T12:59:26;4.80;100.00
15630;DHT22;7914;50.842;0.166;2024-01-07T13:01:52;4.80;100.00
15630;DHT22;7914;50.842;0.166;2024-01-07T13:04:18;4.80;100.00
15630;DHT22;7914;50.842;0.166;2024-01-07T13:06:45;4.90;100.00
15630;DHT22;7914;50.842;0.166;2024-01-07T13:09:11;5.00;100.00
15630;DHT22;7914;50.842;0.166;2024-01-07T13:11:37;4.90;100.00
15630;DHT22;7914;50.842;0.166;2024-01-07T13:14:03;4.90;100.00
15630;DHT22;7914;50.842;0.166;2024-01-07T13:16:29;4.90;100.00
15630;DHT22;7914;50.842;0.166;2024-01-07T13:18:55;4.90;100.00
15630;DHT22;7914;50.842;0.166;2024-01-07T13:21:21;4.90;100.00
15630;DHT22;7914;50.842;0.166;2024-01-07T13:23:47;4.80;100.00
15630;DHT22;7914;50.842;0.166;2024-01-07T13:26:14;4.80;100.00
15630;DHT22;7914;50.842;0.166;2024-01-07T13:28:39;4.70;100.00
15630;DHT22;7914;50.842;0.166;2024-01-07T13:31:05;4.70;100.00
15630;DHT22;7914;50.842;0.166;2024-01-07T13:33:32;4.80;100.00
15630;DHT22;7914;50.842;0.166;2024-01-07T13:35:58;4.70;100.00
15630;DHT22;7914;50.842;0.166;2024-01-07T13:38:24;4.70;100.00
15630;DHT22;7914;50.842;0.166;2024-01-07T13:40:50;4.70;100.00
15630;DHT22;7914;50.842;0.166;2024-01-07T13:43:16;4.70;100.00
15630;DHT22;7914;50.842;0.166;2024-01-07T13:45:42;4.70;100.00
15630;DHT22;7914;50.842;0.166;2024-01-07T13:48:07;4.60;100.00
15630;DHT22;7914;50.842;0.166;2024-01-07T13:50:33;4.60;100.00
15630;DHT22;7914;50.842;0.166;2024-01-07T13:52:59;4.60;100.00
15630;DHT22;7914;50.842;0.166;2024-01-07T13:55:25;4.60;100.00
15630;DHT22;7914;50.842;0.166;2024-01-07T13:57:51;4.60;100.00
15630;DHT22;7914;50.842;0.166;2024-01-07T14:00:16;4.60;100.00
15630;DHT22;7914;50.842;0.166;2024-01-07T14:02:44;4.60;100.00
15630;DHT22;7914;50.842;0.166;2024-01-07T14:05:12;4.60;100.00
15630;DHT22;7914;50.842;0.166;2024-01-07T14:07:38;4.60;100.00
15630;DHT22;7914;50.842;0.166;2024-01-07T14:10:05;4.70;100.00
15630;DHT22;7914;50.842;0.166;2024-01-07T14:12:31;4.70;100.00
15630;DHT22;7914;50.842;0.166;2024-01-07T14:14:57;4.70;100.00
15630;DHT22;7914;50.842;0.166;2024-01-07T14:17:24;4.60;100.00
15630;DHT22;7914;50.842;0.166;2024-01-07T14:19:51;4.60;100.00
15630;DHT22;7914;50.842;0.166;2024-01-07T14:22:19;4.60;100.00
15630;DHT22;7914;50.842;0.166;2024-01-07T14:24:46;4.60;100.00
15630;DHT22;7914;50.842;0.166;2024-01-07T14:27:12;4.60;100.00
15630;DHT22;7914;50.842;0.166;2024-01-07T14:29:37;4.50;100.00
15630;DHT22;7914;50.842;0.166;2024-01-07T14:32:06;4.50;100.00
15630;DHT22;7914;50.842;0.166;2024-01-07T14:34:32;4.50;100.00
15630;DHT22;7914;50.842;0.166;2024-01-07T14:36:58;4.40;100.00
15630;DHT22;7914;50.842;0.166;2024-01-07T14:39:24;4.40;100.00
15630;DHT22;7914;50.842;0.166;2024-01-07T14:41:51;4.40;100.00
15630;DHT22;7914;50.842;0.166;2024-01-07T14:44:17;4.40;100.00
15630;DHT22;7914;50.842;0.166;2024-01-07T14:46:43;4.40;100.00
15630;DHT22;7914;50.842;0.166;2024-01-07T14:49:09;4.40;100.00
15630;DHT22;7914;50.842;0.166;2024-01-07T14:51:34;4.40;100.00
15630;DHT22;7914;50.842;0.166;2024-01-07T14:54:00;4.30;100.00
15630;DHT22;7914;50.842;0.166;2024-01-07T14:56:26;4.30;100.00
15630;DHT22;7914;50.842;0.166;2024-01-07T14:58:52;4.30;100.00
15630;DHT22;7914;50.842;0.166;2024-01-07T15:01:18;4.30;100.00
15630;DHT22;7914;50.842;0.166;2024-01-07T15:03:44;4.20;100.00
15630;DHT22;7914;50.842;0.166;2024-01-07T15:06:10;4.20;100.00
15630;DHT22;7914;50.842;0.166;2024-01-07T15:08:36;4.20;100.00
15630;DHT22;7914;50.842;0.166;2024-01-07T15:11:02;4.20;100.00
15630;DHT22;7914;50.842;0.166;2024-01-07T15:13:29;4.20;100.00
15630;DHT22;7914;50.842;0.166;2024-01-07T15:15:55;4.20;100.00
15630;DHT22;7914;50.842;0.166;2024-01-07T15:18:21;4.30;100.00
15630;DHT22;7914;50.842;0.166;2024-01-07T15:20:47;4.20;100.00
15630;DHT22;7914;50.842;0.166;2024-01-07T15:23:12;4.20;100.00
15630;DHT22;7914;50.842;0.166;2024-01-07T15:25:38;4.20;100.00
15630;DHT22;7914;50.842;0.166;2024-01-07T15:28:04;4.10;100.00
15630;DHT22;7914;50.842;0.166;2024-01-07T15:30:30;4.10;100.00
15630;DHT22;7914;50.842;0.166;2024-01-07T15:32:55;4.10;100.00
15630;DHT22;7914;50.842;0.166;2024-01-07T15:35:22;4.10;100.00
15630;DHT22;7914;50.842;0.166;2024-01-07T15:37:47;4.20;100.00
15630;DHT22;7914;50.842;0.166;2024-01-07T15:40:14;4.10;100.00
15630;DHT22;7914;50.842;0.166;2024-01-07T15:42:40;4.10;100.00
15630;DHT22;7914;50.842;0.166;2024-01-07T15:45:06;4.10;100.00
15630;DHT22;7914;50.842;0.166;2024-01-07T15:47:32;4.10;100.00